sensor_id;sensor_type;location;lat;lon;timestamp;P1;durP1;ratioP1;P2;durP2;ratioP2
51872;SDS011;52863;52.504;13.480;2022-12-18T00:00:40;37.40;;;14.77;;
51872;SDS011;52863;52.504;13.480;2022-12-18T00:03:08;38.63;;;14.53;;
51872;SDS011;52863;52.504;13.480;2022-12-18T00:05:35;14.20;;;6.53;;
51872;SDS011;52863;52.504;13.480;2022-12-18T00:08:02;39.73;;;13.33;;
51872;SDS011;52863;52.504;13.480;2022-12-18T00:10:34;41.13;;;14.73;;
51872;SDS011;52863;52.504;13.480;2022-12-18T00:13:01;27.87;;;11.70;;
51872;SDS011;52863;52.504;13.480;2022-12-18T00:15:35;28.73;;;11.17;;
51872;SDS011;52863;52.504;13.480;2022-12-18T00:18:02;24.20;;;10.83;;
51872;SDS011;52863;52.504;13.480;2022-12-18T00:20:29;29.87;;;13.07;;
51872;SDS011;52863;52.504;13.480;2022-12-18T00:22:56;45.57;;;15.77;;
51872;SDS011;52863;52.504;13.480;2022-12-18T00:25:23;44.73;;;15.13;;
51872;SDS011;52863;52.504;13.480;2022-12-18T00:27:50;57.23;;;14.67;;
51872;SDS011;52863;52.504;13.480;2022-12-18T00:30:17;37.70;;;13.77;;
51872;SDS011;52863;52.504;13.480;2022-12-18T00:32:44;42.80;;;14.03;;
51872;SDS011;52863;52.504;13.480;2022-12-18T00:35:11;40.20;;;14.47;;
51872;SDS011;52863;52.504;13.480;2022-12-18T00:37:38;41.63;;;14.27;;
51872;SDS011;52863;52.504;13.480;2022-12-18T00:40:05;39.30;;;13.30;;
51872;SDS011;52863;52.504;13.480;2022-12-18T00:42:33;38.90;;;13.67;;
51872;SDS011;52863;52.504;13.480;2022-12-18T00:45:19;38.53;;;13.17;;
51872;SDS011;52863;52.504;13.480;2022-12-18T00:47:46;36.73;;;13.80;;
51872;SDS011;52863;52.504;13.480;2022-12-18T00:50:13;41.53;;;13.63;;
51872;SDS011;52863;52.504;13.480;2022-12-18T00:52:42;38.23;;;14.93;;
51872;SDS011;52863;52.504;13.480;2022-12-18T00:55:09;41.83;;;15.20;;
51872;SDS011;52863;52.504;13.480;2022-12-18T00:57:37;33.53;;;14.80;;
51872;SDS011;52863;52.504;13.480;2022-12-18T01:00:06;30.90;;;12.07;;
51872;SDS011;52863;52.504;13.480;2022-12-18T01:02:35;32.77;;;12.13;;
51872;SDS011;52863;52.504;13.480;2022-12-18T01:05:02;21.33;;;9.47;;
51872;SDS011;52863;52.504;13.480;2022-12-18T01:07:29;32.17;;;11.73;;
51872;SDS011;52863;52.504;13.480;2022-12-18T01:09:56;33.63;;;11.83;;
51872;SDS011;52863;52.504;13.480;2022-12-18T01:12:23;41.17;;;14.27;;
51872;SDS011;52863;52.504;13.480;2022-12-18T01:14:50;18.53;;;8.50;;
51872;SDS011;52863;52.504;13.480;2022-12-18T01:17:17;19.57;;;8.47;;
51872;SDS011;52863;52.504;13.480;2022-12-18T01:19:44;17.43;;;6.87;;
51872;SDS011;52863;52.504;13.480;2022-12-18T01:22:13;35.80;;;13.07;;
51872;SDS011;52863;52.504;13.480;2022-12-18T01:24:40;44.07;;;16.03;;
51872;SDS011;52863;52.504;13.480;2022-12-18T01:27:07;43.07;;;16.03;;
51872;SDS011;52863;52.504;13.480;2022-12-18T01:29:34;42.80;;;14.80;;
51872;SDS011;52863;52.504;13.480;2022-12-18T01:32:01;36.40;;;16.07;;
51872;SDS011;52863;52.504;13.480;2022-12-18T01:34:28;33.20;;;13.70;;
51872;SDS011;52863;52.504;13.480;2022-12-18T01:36:55;28.43;;;10.93;;
51872;SDS011;52863;52.504;13.480;2022-12-18T01:39:22;27.17;;;10.73;;
51872;SDS011;52863;52.504;13.480;2022-12-18T01:41:49;19.83;;;8.43;;
51872;SDS011;52863;52.504;13.480;2022-12-18T01:47:23;57.60;;;19.03;;
51872;SDS011;52863;52.504;13.480;2022-12-18T01:49:51;52.63;;;19.67;;
51872;SDS011;52863;52.504;13.480;2022-12-18T01:52:18;48.60;;;17.67;;
51872;SDS011;52863;52.504;13.480;2022-12-18T01:54:45;50.20;;;18.10;;
51872;SDS011;52863;52.504;13.480;2022-12-18T01:57:13;50.53;;;19.37;;
51872;SDS011;52863;52.504;13.480;2022-12-18T01:59:41;41.27;;;14.33;;
51872;SDS011;52863;52.504;13.480;2022-12-18T02:02:11;47.23;;;16.70;;
51872;SDS011;52863;52.504;13.480;2022-12-18T02:04:39;52.10;;;17.60;;
51872;SDS011;52863;52.504;13.480;2022-12-18T02:07:17;48.97;;;18.93;;
51872;SDS011;52863;52.504;13.480;2022-12-18T02:09:50;51.77;;;18.53;;
51872;SDS011;52863;52.504;13.480;2022-12-18T02:12:23;54.97;;;17.23;;
51872;SDS011;52863;52.504;13.480;2022-12-18T02:14:53;56.77;;;22.00;;
51872;SDS011;52863;52.504;13.480;2022-12-18T02:17:27;46.53;;;16.13;;
51872;SDS011;52863;52.504;13.480;2022-12-18T02:20:04;46.60;;;17.90;;
51872;SDS011;52863;52.504;13.480;2022-12-18T02:22:41;32.43;;;12.30;;
51872;SDS011;52863;52.504;13.480;2022-12-18T02:25:20;37.47;;;15.00;;
51872;SDS011;52863;52.504;13.480;2022-12-18T02:27:59;48.23;;;15.93;;
51872;SDS011;52863;52.504;13.480;2022-12-18T02:30:27;42.17;;;16.83;;
51872;SDS011;52863;52.504;13.480;2022-12-18T02:32:57;22.17;;;9.03;;
51872;SDS011;52863;52.504;13.480;2022-12-18T02:35:27;40.33;;;12.50;;
51872;SDS011;52863;52.504;13.480;2022-12-18T02:37:56;31.50;;;10.90;;
51872;SDS011;52863;52.504;13.480;2022-12-18T02:40:24;53.03;;;17.53;;
51872;SDS011;52863;52.504;13.480;2022-12-18T02:42:53;59.10;;;19.23;;
51872;SDS011;52863;52.504;13.480;2022-12-18T02:45:20;49.63;;;17.17;;
51872;SDS011;52863;52.504;13.480;2022-12-18T02:47:48;48.07;;;15.90;;
51872;SDS011;52863;52.504;13.480;2022-12-18T02:50:17;48.40;;;15.77;;
51872;SDS011;52863;52.504;13.480;2022-12-18T02:52:50;44.87;;;15.13;;
51872;SDS011;52863;52.504;13.480;2022-12-18T02:55:30;56.30;;;18.13;;
51872;SDS011;52863;52.504;13.480;2022-12-18T02:58:09;56.90;;;19.87;;
51872;SDS011;52863;52.504;13.480;2022-12-18T03:00:43;36.23;;;13.80;;
51872;SDS011;52863;52.504;13.480;2022-12-18T03:03:16;29.27;;;13.67;;
51872;SDS011;52863;52.504;13.480;2022-12-18T03:05:50;55.47;;;18.27;;
51872;SDS011;52863;52.504;13.480;2022-12-18T03:08:20;50.33;;;17.27;;
51872;SDS011;52863;52.504;13.480;2022-12-18T03:10:51;49.57;;;16.47;;
51872;SDS011;52863;52.504;13.480;2022-12-18T03:13:24;49.87;;;15.83;;
51872;SDS011;52863;52.504;13.480;2022-12-18T03:15:54;43.13;;;14.53;;
51872;SDS011;52863;52.504;13.480;2022-12-18T03:18:23;40.60;;;15.40;;
51872;SDS011;52863;52.504;13.480;2022-12-18T03:20:54;45.10;;;17.63;;
51872;SDS011;52863;52.504;13.480;2022-12-18T03:23:24;48.93;;;16.43;;
51872;SDS011;52863;52.504;13.480;2022-12-18T03:25:54;36.83;;;12.93;;
51872;SDS011;52863;52.504;13.480;2022-12-18T03:28:32;39.60;;;14.63;;
51872;SDS011;52863;52.504;13.480;2022-12-18T03:31:04;34.27;;;13.07;;
51872;SDS011;52863;52.504;13.480;2022-12-18T03:33:37;30.10;;;14.10;;
51872;SDS011;52863;52.504;13.480;2022-12-18T03:36:07;39.07;;;15.37;;
51872;SDS011;52863;52.504;13.480;2022-12-18T03:38:34;38.10;;;12.23;;
51872;SDS011;52863;52.504;13.480;2022-12-18T03:41:03;36.27;;;13.33;;
51872;SDS011;52863;52.504;13.480;2022-12-18T03:43:41;41.70;;;15.73;;
51872;SDS011;52863;52.504;13.480;2022-12-18T03:46:15;24.80;;;10.33;;
51872;SDS011;52863;52.504;13.480;2022-12-18T03:48:51;22.43;;;10.77;;
51872;SDS011;52863;52.504;13.480;2022-12-18T03:51:24;45.50;;;14.10;;
51872;SDS011;52863;52.504;13.480;2022-12-18T03:53:54;25.17;;;10.57;;
51872;SDS011;52863;52.504;13.480;2022-12-18T03:56:25;8.17;;;5.57;;
51872;SDS011;52863;52.504;13.480;2022-12-18T03:58:54;21.20;;;9.27;;
51872;SDS011;52863;52.504;13.480;2022-12-18T04:01:27;18.17;;;8.97;;
51872;SDS011;52863;52.504;13.480;2022-12-18T04:03:56;43.67;;;13.37;;
51872;SDS011;52863;52.504;13.480;2022-12-18T04:06:26;40.50;;;14.63;;
51872;SDS011;52863;52.504;13.480;2022-12-18T04:08:53;42.70;;;15.27;;
51872;SDS011;52863;52.504;13.480;2022-12-18T04:11:20;35.33;;;11.67;;
51872;SDS011;52863;52.504;13.480;2022-12-18T04:13:47;55.00;;;18.60;;
51872;SDS011;52863;52.504;13.480;2022-12-18T04:16:14;41.77;;;14.37;;
51872;SDS011;52863;52.504;13.480;2022-12-18T04:18:41;23.40;;;10.83;;
51872;SDS011;52863;52.504;13.480;2022-12-18T04:21:09;43.07;;;14.60;;
51872;SDS011;52863;52.504;13.480;2022-12-18T04:23:36;35.50;;;13.00;;
51872;SDS011;52863;52.504;13.480;2022-12-18T04:26:03;35.90;;;13.33;;
51872;SDS011;52863;52.504;13.480;2022-12-18T04:28:30;29.83;;;11.47;;
51872;SDS011;52863;52.504;13.480;2022-12-18T04:30:57;35.33;;;14.07;;
51872;SDS011;52863;52.504;13.480;2022-12-18T04:33:24;29.93;;;11.00;;
51872;SDS011;52863;52.504;13.480;2022-12-18T04:35:52;31.97;;;13.00;;
51872;SDS011;52863;52.504;13.480;2022-12-18T04:38:18;32.67;;;13.53;;
51872;SDS011;52863;52.504;13.480;2022-12-18T04:40:45;36.30;;;12.60;;
51872;SDS011;52863;52.504;13.480;2022-12-18T04:43:12;41.30;;;15.07;;
51872;SDS011;52863;52.504;13.480;2022-12-18T04:45:39;37.87;;;13.30;;
51872;SDS011;52863;52.504;13.480;2022-12-18T04:48:06;36.23;;;14.63;;
51872;SDS011;52863;52.504;13.480;2022-12-18T04:50:33;36.97;;;14.27;;
51872;SDS011;52863;52.504;13.480;2022-12-18T04:53:00;45.60;;;13.33;;
51872;SDS011;52863;52.504;13.480;2022-12-18T04:55:27;30.90;;;11.87;;
51872;SDS011;52863;52.504;13.480;2022-12-18T04:57:54;46.30;;;13.60;;
51872;SDS011;52863;52.504;13.480;2022-12-18T05:00:21;36.57;;;13.50;;
51872;SDS011;52863;52.504;13.480;2022-12-18T05:02:48;34.07;;;12.37;;
51872;SDS011;52863;52.504;13.480;2022-12-18T05:05:15;38.03;;;15.97;;
51872;SDS011;52863;52.504;13.480;2022-12-18T05:07:42;39.97;;;14.60;;
51872;SDS011;52863;52.504;13.480;2022-12-18T05:10:10;33.37;;;11.30;;
51872;SDS011;52863;52.504;13.480;2022-12-18T05:12:37;23.67;;;9.20;;
51872;SDS011;52863;52.504;13.480;2022-12-18T05:15:23;37.47;;;14.23;;
51872;SDS011;52863;52.504;13.480;2022-12-18T05:17:50;28.90;;;10.27;;
51872;SDS011;52863;52.504;13.480;2022-12-18T05:20:17;37.97;;;11.97;;
51872;SDS011;52863;52.504;13.480;2022-12-18T05:22:44;16.27;;;7.40;;
51872;SDS011;52863;52.504;13.480;2022-12-18T05:25:12;39.93;;;11.10;;
51872;SDS011;52863;52.504;13.480;2022-12-18T05:27:39;42.07;;;14.83;;
51872;SDS011;52863;52.504;13.480;2022-12-18T05:30:06;47.70;;;14.70;;
51872;SDS011;52863;52.504;13.480;2022-12-18T05:32:34;48.10;;;15.77;;
51872;SDS011;52863;52.504;13.480;2022-12-18T05:35:00;45.87;;;14.70;;
51872;SDS011;52863;52.504;13.480;2022-12-18T05:37:27;47.83;;;16.47;;
51872;SDS011;52863;52.504;13.480;2022-12-18T05:39:54;35.60;;;10.57;;
51872;SDS011;52863;52.504;13.480;2022-12-18T05:42:22;54.37;;;16.30;;
51872;SDS011;52863;52.504;13.480;2022-12-18T05:44:49;46.23;;;16.07;;
51872;SDS011;52863;52.504;13.480;2022-12-18T05:47:15;55.23;;;15.90;;
51872;SDS011;52863;52.504;13.480;2022-12-18T05:49:42;57.97;;;16.33;;
51872;SDS011;52863;52.504;13.480;2022-12-18T05:52:09;53.03;;;15.93;;
51872;SDS011;52863;52.504;13.480;2022-12-18T05:54:36;47.83;;;16.53;;
51872;SDS011;52863;52.504;13.480;2022-12-18T05:57:03;59.13;;;16.97;;
51872;SDS011;52863;52.504;13.480;2022-12-18T05:59:31;35.00;;;11.57;;
51872;SDS011;52863;52.504;13.480;2022-12-18T06:01:57;54.27;;;16.50;;
51872;SDS011;52863;52.504;13.480;2022-12-18T06:04:26;49.10;;;16.57;;
51872;SDS011;52863;52.504;13.480;2022-12-18T06:06:56;42.80;;;14.47;;
51872;SDS011;52863;52.504;13.480;2022-12-18T06:09:23;43.17;;;17.77;;
51872;SDS011;52863;52.504;13.480;2022-12-18T06:11:51;23.60;;;11.00;;
51872;SDS011;52863;52.504;13.480;2022-12-18T06:14:18;27.70;;;11.93;;
51872;SDS011;52863;52.504;13.480;2022-12-18T06:16:45;23.53;;;9.33;;
51872;SDS011;52863;52.504;13.480;2022-12-18T06:19:13;46.67;;;14.03;;
51872;SDS011;52863;52.504;13.480;2022-12-18T06:21:42;42.60;;;14.30;;
51872;SDS011;52863;52.504;13.480;2022-12-18T06:24:09;45.20;;;15.00;;
51872;SDS011;52863;52.504;13.480;2022-12-18T06:26:36;61.77;;;17.03;;
51872;SDS011;52863;52.504;13.480;2022-12-18T06:29:03;42.97;;;16.13;;
51872;SDS011;52863;52.504;13.480;2022-12-18T06:31:30;49.93;;;15.93;;
51872;SDS011;52863;52.504;13.480;2022-12-18T06:33:58;52.40;;;15.60;;
51872;SDS011;52863;52.504;13.480;2022-12-18T06:36:26;39.83;;;15.87;;
51872;SDS011;52863;52.504;13.480;2022-12-18T06:38:56;47.20;;;16.03;;
51872;SDS011;52863;52.504;13.480;2022-12-18T06:41:23;48.77;;;16.37;;
51872;SDS011;52863;52.504;13.480;2022-12-18T06:43:50;50.97;;;16.40;;
51872;SDS011;52863;52.504;13.480;2022-12-18T06:46:22;50.10;;;16.87;;
51872;SDS011;52863;52.504;13.480;2022-12-18T06:48:49;34.37;;;13.10;;
51872;SDS011;52863;52.504;13.480;2022-12-18T06:51:19;25.50;;;10.47;;
51872;SDS011;52863;52.504;13.480;2022-12-18T06:53:47;41.47;;;15.20;;
51872;SDS011;52863;52.504;13.480;2022-12-18T06:56:14;45.60;;;15.17;;
51872;SDS011;52863;52.504;13.480;2022-12-18T06:58:41;47.13;;;16.07;;
51872;SDS011;52863;52.504;13.480;2022-12-18T07:01:11;54.97;;;16.70;;
51872;SDS011;52863;52.504;13.480;2022-12-18T07:03:38;43.03;;;16.20;;
51872;SDS011;52863;52.504;13.480;2022-12-18T07:06:11;47.37;;;18.53;;
51872;SDS011;52863;52.504;13.480;2022-12-18T07:08:41;40.50;;;14.40;;
51872;SDS011;52863;52.504;13.480;2022-12-18T07:11:08;42.77;;;16.40;;
51872;SDS011;52863;52.504;13.480;2022-12-18T07:13:34;41.07;;;13.43;;
51872;SDS011;52863;52.504;13.480;2022-12-18T07:16:06;45.10;;;13.47;;
51872;SDS011;52863;52.504;13.480;2022-12-18T07:18:43;17.10;;;8.80;;
51872;SDS011;52863;52.504;13.480;2022-12-18T07:21:11;26.33;;;11.30;;
51872;SDS011;52863;52.504;13.480;2022-12-18T07:23:42;47.37;;;17.87;;
51872;SDS011;52863;52.504;13.480;2022-12-18T07:26:09;46.23;;;16.37;;
51872;SDS011;52863;52.504;13.480;2022-12-18T07:28:38;50.13;;;16.00;;
51872;SDS011;52863;52.504;13.480;2022-12-18T07:31:06;43.33;;;16.20;;
51872;SDS011;52863;52.504;13.480;2022-12-18T07:33:37;45.07;;;15.33;;
51872;SDS011;52863;52.504;13.480;2022-12-18T07:36:05;36.57;;;12.67;;
51872;SDS011;52863;52.504;13.480;2022-12-18T07:38:34;42.80;;;13.33;;
51872;SDS011;52863;52.504;13.480;2022-12-18T07:41:02;41.30;;;15.50;;
51872;SDS011;52863;52.504;13.480;2022-12-18T07:43:31;45.50;;;14.40;;
51872;SDS011;52863;52.504;13.480;2022-12-18T07:45:58;22.73;;;8.37;;
51872;SDS011;52863;52.504;13.480;2022-12-18T07:48:25;18.17;;;8.97;;
51872;SDS011;52863;52.504;13.480;2022-12-18T07:50:52;16.87;;;9.27;;
51872;SDS011;52863;52.504;13.480;2022-12-18T07:53:19;6.87;;;5.33;;
51872;SDS011;52863;52.504;13.480;2022-12-18T07:55:46;43.23;;;14.93;;
51872;SDS011;52863;52.504;13.480;2022-12-18T07:58:34;21.70;;;11.07;;
51872;SDS011;52863;52.504;13.480;2022-12-18T08:01:05;26.23;;;12.03;;
51872;SDS011;52863;52.504;13.480;2022-12-18T08:03:32;25.47;;;8.17;;
51872;SDS011;52863;52.504;13.480;2022-12-18T08:06:00;25.13;;;10.43;;
51872;SDS011;52863;52.504;13.480;2022-12-18T08:08:27;12.73;;;8.87;;
51872;SDS011;52863;52.504;13.480;2022-12-18T08:10:54;13.43;;;7.37;;
51872;SDS011;52863;52.504;13.480;2022-12-18T08:13:21;28.00;;;11.70;;
51872;SDS011;52863;52.504;13.480;2022-12-18T08:15:55;43.07;;;13.53;;
51872;SDS011;52863;52.504;13.480;2022-12-18T08:18:23;19.97;;;7.33;;
51872;SDS011;52863;52.504;13.480;2022-12-18T08:20:49;20.20;;;8.97;;
51872;SDS011;52863;52.504;13.480;2022-12-18T08:23:16;15.73;;;8.30;;
51872;SDS011;52863;52.504;13.480;2022-12-18T08:25:43;13.93;;;6.60;;
51872;SDS011;52863;52.504;13.480;2022-12-18T08:28:10;11.67;;;5.73;;
51872;SDS011;52863;52.504;13.480;2022-12-18T08:30:37;35.33;;;12.97;;
51872;SDS011;52863;52.504;13.480;2022-12-18T08:33:05;11.63;;;6.17;;
51872;SDS011;52863;52.504;13.480;2022-12-18T08:35:34;9.00;;;5.30;;
51872;SDS011;52863;52.504;13.480;2022-12-18T08:38:09;25.90;;;10.73;;
51872;SDS011;52863;52.504;13.480;2022-12-18T08:40:36;18.40;;;7.57;;
51872;SDS011;52863;52.504;13.480;2022-12-18T08:43:03;29.27;;;13.17;;
51872;SDS011;52863;52.504;13.480;2022-12-18T08:45:48;44.17;;;16.50;;
51872;SDS011;52863;52.504;13.480;2022-12-18T08:48:16;41.33;;;14.47;;
51872;SDS011;52863;52.504;13.480;2022-12-18T08:50:53;35.00;;;15.37;;
51872;SDS011;52863;52.504;13.480;2022-12-18T08:53:20;38.30;;;15.17;;
51872;SDS011;52863;52.504;13.480;2022-12-18T08:55:50;35.07;;;14.13;;
51872;SDS011;52863;52.504;13.480;2022-12-18T08:58:17;25.63;;;9.50;;
51872;SDS011;52863;52.504;13.480;2022-12-18T09:00:44;35.33;;;15.50;;
51872;SDS011;52863;52.504;13.480;2022-12-18T09:03:12;35.83;;;10.87;;
51872;SDS011;52863;52.504;13.480;2022-12-18T09:05:39;33.40;;;11.40;;
51872;SDS011;52863;52.504;13.480;2022-12-18T09:08:09;32.93;;;12.93;;
51872;SDS011;52863;52.504;13.480;2022-12-18T09:10:40;20.20;;;9.93;;
51872;SDS011;52863;52.504;13.480;2022-12-18T09:13:09;30.90;;;10.33;;
51872;SDS011;52863;52.504;13.480;2022-12-18T09:15:39;31.33;;;13.70;;
51872;SDS011;52863;52.504;13.480;2022-12-18T09:18:07;26.13;;;8.77;;
51872;SDS011;52863;52.504;13.480;2022-12-18T09:20:35;41.63;;;15.23;;
51872;SDS011;52863;52.504;13.480;2022-12-18T09:23:02;29.93;;;12.40;;
51872;SDS011;52863;52.504;13.480;2022-12-18T09:25:29;30.63;;;14.20;;
51872;SDS011;52863;52.504;13.480;2022-12-18T09:27:58;42.50;;;13.43;;
51872;SDS011;52863;52.504;13.480;2022-12-18T09:30:26;39.87;;;14.57;;
51872;SDS011;52863;52.504;13.480;2022-12-18T09:32:53;40.80;;;13.83;;
51872;SDS011;52863;52.504;13.480;2022-12-18T09:35:22;27.77;;;10.40;;
51872;SDS011;52863;52.504;13.480;2022-12-18T09:37:50;34.57;;;15.00;;
51872;SDS011;52863;52.504;13.480;2022-12-18T09:40:18;45.40;;;14.20;;
51872;SDS011;52863;52.504;13.480;2022-12-18T09:42:48;43.47;;;16.13;;
51872;SDS011;52863;52.504;13.480;2022-12-18T09:45:17;45.20;;;15.37;;
51872;SDS011;52863;52.504;13.480;2022-12-18T09:47:45;41.70;;;16.53;;
51872;SDS011;52863;52.504;13.480;2022-12-18T09:50:17;31.50;;;11.07;;
51872;SDS011;52863;52.504;13.480;2022-12-18T09:52:51;25.27;;;11.47;;
51872;SDS011;52863;52.504;13.480;2022-12-18T09:55:25;22.80;;;9.73;;
51872;SDS011;52863;52.504;13.480;2022-12-18T09:58:04;41.13;;;15.87;;
51872;SDS011;52863;52.504;13.480;2022-12-18T10:00:38;40.07;;;15.50;;
51872;SDS011;52863;52.504;13.480;2022-12-18T10:03:08;17.87;;;9.87;;
51872;SDS011;52863;52.504;13.480;2022-12-18T10:05:40;26.80;;;11.00;;
51872;SDS011;52863;52.504;13.480;2022-12-18T10:08:13;15.63;;;6.20;;
51872;SDS011;52863;52.504;13.480;2022-12-18T10:10:47;29.97;;;10.70;;
51872;SDS011;52863;52.504;13.480;2022-12-18T10:13:20;35.87;;;15.40;;
51872;SDS011;52863;52.504;13.480;2022-12-18T10:16:02;25.10;;;9.67;;
51872;SDS011;52863;52.504;13.480;2022-12-18T10:18:42;33.67;;;14.17;;
51872;SDS011;52863;52.504;13.480;2022-12-18T10:21:23;26.67;;;11.57;;
51872;SDS011;52863;52.504;13.480;2022-12-18T10:23:57;44.77;;;15.27;;
51872;SDS011;52863;52.504;13.480;2022-12-18T10:26:31;23.70;;;9.70;;
51872;SDS011;52863;52.504;13.480;2022-12-18T10:29:06;34.27;;;14.23;;
51872;SDS011;52863;52.504;13.480;2022-12-18T10:31:36;49.33;;;16.33;;
51872;SDS011;52863;52.504;13.480;2022-12-18T10:34:08;46.23;;;14.90;;
51872;SDS011;52863;52.504;13.480;2022-12-18T10:36:35;46.87;;;18.70;;
51872;SDS011;52863;52.504;13.480;2022-12-18T10:39:13;37.73;;;16.53;;
51872;SDS011;52863;52.504;13.480;2022-12-18T10:41:42;25.33;;;10.37;;
51872;SDS011;52863;52.504;13.480;2022-12-18T10:44:16;21.00;;;10.17;;
51872;SDS011;52863;52.504;13.480;2022-12-18T10:46:44;35.70;;;10.10;;
51872;SDS011;52863;52.504;13.480;2022-12-18T10:49:19;24.80;;;10.53;;
51872;SDS011;52863;52.504;13.480;2022-12-18T10:51:48;33.47;;;13.67;;
51872;SDS011;52863;52.504;13.480;2022-12-18T10:54:16;32.13;;;11.47;;
51872;SDS011;52863;52.504;13.480;2022-12-18T10:56:45;16.90;;;9.60;;
51872;SDS011;52863;52.504;13.480;2022-12-18T10:59:13;20.93;;;9.77;;
51872;SDS011;52863;52.504;13.480;2022-12-18T11:04:57;14.90;;;9.13;;
51872;SDS011;52863;52.504;13.480;2022-12-18T11:07:57;15.53;;;7.17;;
51872;SDS011;52863;52.504;13.480;2022-12-18T11:10:27;26.17;;;11.33;;
51872;SDS011;52863;52.504;13.480;2022-12-18T11:12:57;18.97;;;9.17;;
51872;SDS011;52863;52.504;13.480;2022-12-18T11:15:41;30.53;;;12.03;;
51872;SDS011;52863;52.504;13.480;2022-12-18T11:18:15;35.77;;;14.27;;
51872;SDS011;52863;52.504;13.480;2022-12-18T11:20:50;20.83;;;8.17;;
51872;SDS011;52863;52.504;13.480;2022-12-18T11:23:23;15.40;;;8.27;;
51872;SDS011;52863;52.504;13.480;2022-12-18T11:25:51;17.07;;;7.90;;
51872;SDS011;52863;52.504;13.480;2022-12-18T11:28:28;22.30;;;8.93;;
51872;SDS011;52863;52.504;13.480;2022-12-18T11:31:18;11.77;;;6.57;;
51872;SDS011;52863;52.504;13.480;2022-12-18T11:33:48;21.87;;;9.77;;
51872;SDS011;52863;52.504;13.480;2022-12-18T11:36:43;33.37;;;10.90;;
51872;SDS011;52863;52.504;13.480;2022-12-18T11:39:12;39.77;;;15.40;;
51872;SDS011;52863;52.504;13.480;2022-12-18T11:41:46;36.13;;;13.30;;
51872;SDS011;52863;52.504;13.480;2022-12-18T11:44:45;25.40;;;8.90;;
51872;SDS011;52863;52.504;13.480;2022-12-18T11:47:18;20.60;;;9.33;;
51872;SDS011;52863;52.504;13.480;2022-12-18T11:49:51;36.23;;;16.00;;
51872;SDS011;52863;52.504;13.480;2022-12-18T11:52:18;39.70;;;15.20;;
51872;SDS011;52863;52.504;13.480;2022-12-18T11:54:50;39.00;;;15.67;;
51872;SDS011;52863;52.504;13.480;2022-12-18T11:57:19;12.90;;;6.90;;
51872;SDS011;52863;52.504;13.480;2022-12-18T11:59:55;35.17;;;12.83;;
51872;SDS011;52863;52.504;13.480;2022-12-18T12:02:38;35.83;;;12.97;;
51872;SDS011;52863;52.504;13.480;2022-12-18T12:05:36;24.10;;;10.13;;
51872;SDS011;52863;52.504;13.480;2022-12-18T12:08:15;21.63;;;10.50;;
51872;SDS011;52863;52.504;13.480;2022-12-18T12:10:49;33.73;;;12.40;;
51872;SDS011;52863;52.504;13.480;2022-12-18T12:13:29;11.23;;;6.13;;
51872;SDS011;52863;52.504;13.480;2022-12-18T12:16:09;21.30;;;9.90;;
51872;SDS011;52863;52.504;13.480;2022-12-18T12:18:46;34.33;;;14.87;;
51872;SDS011;52863;52.504;13.480;2022-12-18T12:21:22;27.27;;;12.63;;
51872;SDS011;52863;52.504;13.480;2022-12-18T12:23:57;26.47;;;12.73;;
51872;SDS011;52863;52.504;13.480;2022-12-18T12:26:32;24.30;;;11.43;;
51872;SDS011;52863;52.504;13.480;2022-12-18T12:29:09;17.10;;;8.77;;
51872;SDS011;52863;52.504;13.480;2022-12-18T12:31:55;26.57;;;11.37;;
51872;SDS011;52863;52.504;13.480;2022-12-18T12:34:32;35.27;;;13.43;;
51872;SDS011;52863;52.504;13.480;2022-12-18T12:44:27;27.03;;;14.20;;
51872;SDS011;52863;52.504;13.480;2022-12-18T12:47:00;24.10;;;10.87;;
51872;SDS011;52863;52.504;13.480;2022-12-18T12:49:37;26.87;;;11.43;;
51872;SDS011;52863;52.504;13.480;2022-12-18T12:52:07;33.90;;;12.60;;
51872;SDS011;52863;52.504;13.480;2022-12-18T12:54:40;30.70;;;14.73;;
51872;SDS011;52863;52.504;13.480;2022-12-18T12:57:09;26.73;;;12.33;;
51872;SDS011;52863;52.504;13.480;2022-12-18T12:59:44;19.93;;;8.70;;
51872;SDS011;52863;52.504;13.480;2022-12-18T13:02:18;21.57;;;9.93;;
51872;SDS011;52863;52.504;13.480;2022-12-18T13:04:52;19.47;;;10.00;;
51872;SDS011;52863;52.504;13.480;2022-12-18T13:07:25;21.73;;;6.83;;
51872;SDS011;52863;52.504;13.480;2022-12-18T13:10:12;26.73;;;11.40;;
51872;SDS011;52863;52.504;13.480;2022-12-18T13:13:08;22.33;;;11.67;;
51872;SDS011;52863;52.504;13.480;2022-12-18T13:15:37;7.97;;;3.57;;
51872;SDS011;52863;52.504;13.480;2022-12-18T13:18:13;6.63;;;4.73;;
51872;SDS011;52863;52.504;13.480;2022-12-18T13:20:47;20.13;;;10.80;;
51872;SDS011;52863;52.504;13.480;2022-12-18T13:23:31;13.90;;;6.00;;
51872;SDS011;52863;52.504;13.480;2022-12-18T13:25:59;25.43;;;13.77;;
51872;SDS011;52863;52.504;13.480;2022-12-18T13:28:58;27.27;;;12.87;;
51872;SDS011;52863;52.504;13.480;2022-12-18T13:34:36;21.97;;;11.00;;
51872;SDS011;52863;52.504;13.480;2022-12-18T13:43:30;12.70;;;7.00;;
51872;SDS011;52863;52.504;13.480;2022-12-18T13:46:21;10.80;;;7.37;;
51872;SDS011;52863;52.504;13.480;2022-12-18T13:48:53;31.33;;;13.40;;
51872;SDS011;52863;52.504;13.480;2022-12-18T13:51:27;6.37;;;4.90;;
51872;SDS011;52863;52.504;13.480;2022-12-18T13:53:57;9.47;;;6.50;;
51872;SDS011;52863;52.504;13.480;2022-12-18T13:56:26;20.27;;;8.50;;
51872;SDS011;52863;52.504;13.480;2022-12-18T13:59:05;9.03;;;4.10;;
51872;SDS011;52863;52.504;13.480;2022-12-18T14:01:52;10.67;;;7.03;;
51872;SDS011;52863;52.504;13.480;2022-12-18T14:04:27;16.73;;;5.73;;
51872;SDS011;52863;52.504;13.480;2022-12-18T14:06:57;9.70;;;6.27;;
51872;SDS011;52863;52.504;13.480;2022-12-18T14:09:28;12.97;;;9.17;;
51872;SDS011;52863;52.504;13.480;2022-12-18T14:11:57;24.40;;;13.23;;
51872;SDS011;52863;52.504;13.480;2022-12-18T14:14:40;12.93;;;8.43;;
51872;SDS011;52863;52.504;13.480;2022-12-18T14:17:09;7.50;;;4.97;;
51872;SDS011;52863;52.504;13.480;2022-12-18T14:19:40;11.37;;;5.47;;
51872;SDS011;52863;52.504;13.480;2022-12-18T14:22:19;29.37;;;12.97;;
51872;SDS011;52863;52.504;13.480;2022-12-18T14:25:05;8.43;;;7.27;;
51872;SDS011;52863;52.504;13.480;2022-12-18T14:27:41;25.60;;;12.07;;
51872;SDS011;52863;52.504;13.480;2022-12-18T14:30:28;22.53;;;11.10;;
51872;SDS011;52863;52.504;13.480;2022-12-18T14:33:04;9.60;;;4.10;;
51872;SDS011;52863;52.504;13.480;2022-12-18T14:35:35;21.37;;;12.57;;
51872;SDS011;52863;52.504;13.480;2022-12-18T14:38:11;14.07;;;7.17;;
51872;SDS011;52863;52.504;13.480;2022-12-18T14:40:46;11.37;;;6.27;;
51872;SDS011;52863;52.504;13.480;2022-12-18T14:43:13;10.87;;;6.07;;
51872;SDS011;52863;52.504;13.480;2022-12-18T14:45:40;16.40;;;8.97;;
51872;SDS011;52863;52.504;13.480;2022-12-18T14:48:12;16.07;;;6.30;;
51872;SDS011;52863;52.504;13.480;2022-12-18T14:50:55;7.73;;;4.73;;
51872;SDS011;52863;52.504;13.480;2022-12-18T14:53:28;9.27;;;5.23;;
51872;SDS011;52863;52.504;13.480;2022-12-18T14:56:02;8.03;;;4.83;;
51872;SDS011;52863;52.504;13.480;2022-12-18T14:58:37;20.40;;;13.07;;